sensor_id;sensor_type;location;lat;lon;timestamp;pressure;altitude;pressure_sealevel;temperature;humidity
13478;BME280;12598;62.382;17.344;2023-07-29T00:00:27;99805.38;;;26.68;34.54
13478;BME280;12598;62.382;17.344;2023-07-29T00:01:29;99817.63;;;26.70;34.41
13478;BME280;12598;62.382;17.344;2023-07-29T00:02:31;99810.34;;;26.71;34.55
13478;BME280;12598;62.382;17.344;2023-07-29T00:03:34;99812.19;;;26.70;34.48
13478;BME280;12598;62.382;17.344;2023-07-29T00:04:36;99817.63;;;26.70;34.55
13478;BME280;12598;62.382;17.344;2023-07-29T00:05:38;99818.69;;;26.69;34.59
13478;BME280;12598;62.382;17.344;2023-07-29T00:06:40;99820.19;;;26.65;34.59
13478;BME280;12598;62.382;17.344;2023-07-29T00:07:42;99826.22;;;26.67;34.69
13478;BME280;12598;62.382;17.344;2023-07-29T00:08:43;99820.78;;;26.67;34.80
13478;BME280;12598;62.382;17.344;2023-07-29T00:09:45;99827.28;;;26.66;34.69
13478;BME280;12598;62.382;17.344;2023-07-29T00:10:47;99822.91;;;26.65;34.69
13478;BME280;12598;62.382;17.344;2023-07-29T00:11:49;99825.63;;;26.65;34.77
13478;BME280;12598;62.382;17.344;2023-07-29T00:12:51;99825.63;;;26.65;34.50
13478;BME280;12598;62.382;17.344;2023-07-29T00:13:53;99826.66;;;26.64;35.14
13478;BME280;12598;62.382;17.344;2023-07-29T00:14:55;99822.31;;;26.63;34.75
13478;BME280;12598;62.382;17.344;2023-07-29T00:15:57;99832.94;;;26.65;34.93
13478;BME280;12598;62.382;17.344;2023-07-29T00:16:59;99827.72;;;26.63;35.06
13478;BME280;12598;62.382;17.344;2023-07-29T00:18:01;99822.56;;;26.62;35.08
13478;BME280;12598;62.382;17.344;2023-07-29T00:19:03;99826.31;;;26.61;35.00
13478;BME280;12598;62.382;17.344;2023-07-29T00:20:06;99819.84;;;26.62;34.90
13478;BME280;12598;62.382;17.344;2023-07-29T00:21:10;99826.31;;;26.61;35.07
13478;BME280;12598;62.382;17.344;2023-07-29T00:22:12;99832.56;;;26.61;34.83
13478;BME280;12598;62.382;17.344;2023-07-29T00:23:14;99830.91;;;26.60;35.30
13478;BME280;12598;62.382;17.344;2023-07-29T00:24:15;99830.06;;;26.60;34.97
13478;BME280;12598;62.382;17.344;2023-07-29T00:25:17;99835.50;;;26.60;34.94
13478;BME280;12598;62.382;17.344;2023-07-29T00:26:19;99826.53;;;26.59;35.02
13478;BME280;12598;62.382;17.344;2023-07-29T00:27:23;99822.16;;;26.58;35.34
13478;BME280;12598;62.382;17.344;2023-07-29T00:28:25;99826.53;;;26.59;35.23
13478;BME280;12598;62.382;17.344;2023-07-29T00:29:27;99822.16;;;26.58;35.11
13478;BME280;12598;62.382;17.344;2023-07-29T00:30:29;99818.84;;;26.56;35.40
13478;BME280;12598;62.382;17.344;2023-07-29T00:31:32;99819.66;;;26.57;35.09
13478;BME280;12598;62.382;17.344;2023-07-29T00:32:35;99825.91;;;26.57;35.26
13478;BME280;12598;62.382;17.344;2023-07-29T00:33:37;99822.38;;;26.57;35.24
13478;BME280;12598;62.382;17.344;2023-07-29T00:34:38;99821.56;;;26.56;35.39
13478;BME280;12598;62.382;17.344;2023-07-29T00:35:40;99819.91;;;26.55;35.39
13478;BME280;12598;62.382;17.344;2023-07-29T00:36:42;99818.25;;;26.54;35.53
13478;BME280;12598;62.382;17.344;2023-07-29T00:37:44;99817.41;;;26.54;35.65
13478;BME280;12598;62.382;17.344;2023-07-29T00:38:46;99820.09;;;26.54;35.10
13478;BME280;12598;62.382;17.344;2023-07-29T00:39:49;99815.53;;;26.54;35.37
13478;BME280;12598;62.382;17.344;2023-07-29T00:40:51;99811.16;;;26.53;35.36
13478;BME280;12598;62.382;17.344;2023-07-29T00:41:53;99807.59;;;26.53;35.35
13478;BME280;12598;62.382;17.344;2023-07-29T00:42:56;99813.88;;;26.53;35.48
13478;BME280;12598;62.382;17.344;2023-07-29T00:43:58;99810.56;;;26.51;35.42
13478;BME280;12598;62.382;17.344;2023-07-29T00:45:00;99810.56;;;26.51;35.50
13478;BME280;12598;62.382;17.344;2023-07-29T00:46:02;99797.66;;;26.47;35.42
13478;BME280;12598;62.382;17.344;2023-07-29T00:47:05;99802.63;;;26.50;35.78
13478;BME280;12598;62.382;17.344;2023-07-29T00:48:08;99808.91;;;26.50;35.44
13478;BME280;12598;62.382;17.344;2023-07-29T00:49:10;99805.59;;;26.48;35.65
13478;BME280;12598;62.382;17.344;2023-07-29T00:50:13;99803.09;;;26.47;35.50
13478;BME280;12598;62.382;17.344;2023-07-29T00:51:16;99799.31;;;26.48;35.94
13478;BME280;12598;62.382;17.344;2023-07-29T00:52:18;99809.34;;;26.47;35.41
13478;BME280;12598;62.382;17.344;2023-07-29T00:53:20;99798.31;;;26.42;35.65
13478;BME280;12598;62.382;17.344;2023-07-29T00:54:24;99807.44;;;26.48;35.59
13478;BME280;12598;62.382;17.344;2023-07-29T00:55:26;99795.59;;;26.42;35.38
13478;BME280;12598;62.382;17.344;2023-07-29T00:56:30;99813.94;;;26.47;35.55
13478;BME280;12598;62.382;17.344;2023-07-29T00:57:32;99793.09;;;26.47;35.59
13478;BME280;12598;62.382;17.344;2023-07-29T00:58:34;99798.50;;;26.47;35.29
13478;BME280;12598;62.382;17.344;2023-07-29T00:59:37;99797.28;;;26.43;35.77
13478;BME280;12598;62.382;17.344;2023-07-29T01:00:40;99796.84;;;26.46;35.71
13478;BME280;12598;62.382;17.344;2023-07-29T01:01:42;99790.78;;;26.44;35.92
13478;BME280;12598;62.382;17.344;2023-07-29T01:02:44;99794.31;;;26.45;35.55
13478;BME280;12598;62.382;17.344;2023-07-29T01:03:47;99799.56;;;26.46;35.84
13478;BME280;12598;62.382;17.344;2023-07-29T01:04:56;99792.44;;;26.45;35.75
13478;BME280;12598;62.382;17.344;2023-07-29T01:08:31;99792.84;;;26.49;35.58
13478;BME280;12598;62.382;17.344;2023-07-29T01:11:25;99794.44;;;26.56;35.58
13478;BME280;12598;62.382;17.344;2023-07-29T01:12:54;99794.59;;;26.61;35.47
13478;BME280;12598;62.382;17.344;2023-07-29T01:15:43;99785.25;;;26.57;35.16
13478;BME280;12598;62.382;17.344;2023-07-29T01:16:52;99780.13;;;26.49;35.32
13478;BME280;12598;62.382;17.344;2023-07-29T01:18:26;99780.88;;;26.56;35.41
13478;BME280;12598;62.382;17.344;2023-07-29T01:19:48;99790.66;;;26.57;35.42
13478;BME280;12598;62.382;17.344;2023-07-29T01:21:03;99775.31;;;26.51;35.68
13478;BME280;12598;62.382;17.344;2023-07-29T01:22:07;99781.78;;;26.50;35.73
13478;BME280;12598;62.382;17.344;2023-07-29T01:23:10;99768.88;;;26.46;35.79
13478;BME280;12598;62.382;17.344;2023-07-29T01:24:12;99772.88;;;26.43;35.74
13478;BME280;12598;62.382;17.344;2023-07-29T01:25:14;99760.63;;;26.34;35.57
13478;BME280;12598;62.382;17.344;2023-07-29T01:26:16;99779.81;;;26.39;35.99
13478;BME280;12598;62.382;17.344;2023-07-29T01:27:17;99771.06;;;26.37;35.65
13478;BME280;12598;62.382;17.344;2023-07-29T01:28:20;99770.22;;;26.37;36.13
13478;BME280;12598;62.382;17.344;2023-07-29T01:29:23;99774.78;;;26.36;35.91
13478;BME280;12598;62.382;17.344;2023-07-29T01:30:36;99768.34;;;26.37;36.12
13478;BME280;12598;62.382;17.344;2023-07-29T01:31:43;99764.59;;;26.38;35.90
13478;BME280;12598;62.382;17.344;2023-07-29T01:33:02;99762.22;;;26.42;35.82
13478;BME280;12598;62.382;17.344;2023-07-29T01:35:57;99760.44;;;26.54;35.50
13478;BME280;12598;62.382;17.344;2023-07-29T01:37:02;99764.91;;;26.48;35.62
13478;BME280;12598;62.382;17.344;2023-07-29T01:38:23;99755.94;;;26.48;35.49
13478;BME280;12598;62.382;17.344;2023-07-29T01:39:29;99759.31;;;26.43;35.87
13478;BME280;12598;62.382;17.344;2023-07-29T01:40:34;99762.47;;;26.40;35.86
13478;BME280;12598;62.382;17.344;2023-07-29T01:41:37;99767.28;;;26.38;35.82
13478;BME280;12598;62.382;17.344;2023-07-29T01:42:39;99763.94;;;26.36;35.79
13478;BME280;12598;62.382;17.344;2023-07-29T01:43:41;99763.34;;;26.34;36.05
13478;BME280;12598;62.382;17.344;2023-07-29T01:44:46;99765.25;;;26.34;36.48
13478;BME280;12598;62.382;17.344;2023-07-29T01:45:48;99764.41;;;26.33;36.21
13478;BME280;12598;62.382;17.344;2023-07-29T01:46:52;99769.00;;;26.33;36.05
13478;BME280;12598;62.382;17.344;2023-07-29T01:47:53;99768.16;;;26.32;35.88
13478;BME280;12598;62.382;17.344;2023-07-29T01:48:55;99771.94;;;26.31;36.03
13478;BME280;12598;62.382;17.344;2023-07-29T01:49:57;99768.03;;;26.27;36.39
13478;BME280;12598;62.382;17.344;2023-07-29T01:50:59;99768.63;;;26.29;36.11
13478;BME280;12598;62.382;17.344;2023-07-29T01:52:01;99765.91;;;26.29;35.89
13478;BME280;12598;62.382;17.344;2023-07-29T01:53:03;99767.81;;;26.29;36.01
13478;BME280;12598;62.382;17.344;2023-07-29T01:54:05;99766.97;;;26.28;36.29
13478;BME280;12598;62.382;17.344;2023-07-29T01:55:07;99769.69;;;26.28;36.39
13478;BME280;12598;62.382;17.344;2023-07-29T01:56:09;99769.69;;;26.28;36.11
13478;BME280;12598;62.382;17.344;2023-07-29T01:57:15;99765.91;;;26.29;36.06
13478;BME280;12598;62.382;17.344;2023-07-29T01:58:17;99766.97;;;26.28;36.13
13478;BME280;12598;62.382;17.344;2023-07-29T01:59:21;99764.25;;;26.28;36.26
13478;BME280;12598;62.382;17.344;2023-07-29T02:00:23;99765.09;;;26.29;36.14
13478;BME280;12598;62.382;17.344;2023-07-29T02:01:25;99766.97;;;26.28;36.46
13478;BME280;12598;62.382;17.344;2023-07-29T02:02:27;99764.50;;;26.27;36.18
13478;BME280;12598;62.382;17.344;2023-07-29T02:03:29;99764.25;;;26.28;36.18
13478;BME280;12598;62.382;17.344;2023-07-29T02:04:31;99766.16;;;26.28;36.18
13478;BME280;12598;62.382;17.344;2023-07-29T02:05:33;99765.31;;;26.27;36.47
13478;BME280;12598;62.382;17.344;2023-07-29T02:06:35;99763.66;;;26.26;36.35
13478;BME280;12598;62.382;17.344;2023-07-29T02:07:38;99762.59;;;26.27;36.22
13478;BME280;12598;62.382;17.344;2023-07-29T02:08:39;99760.78;;;26.21;36.65
13478;BME280;12598;62.382;17.344;2023-07-29T02:09:42;99760.94;;;26.26;36.55
13478;BME280;12598;62.382;17.344;2023-07-29T02:10:44;99759.28;;;26.25;36.42
13478;BME280;12598;62.382;17.344;2023-07-29T02:11:47;99742.88;;;26.20;36.44
13478;BME280;12598;62.382;17.344;2023-07-29T02:12:49;99756.56;;;26.25;36.40
13478;BME280;12598;62.382;17.344;2023-07-29T02:13:51;99755.38;;;26.21;36.17
13478;BME280;12598;62.382;17.344;2023-07-29T02:14:52;99754.91;;;26.24;36.44
13478;BME280;12598;62.382;17.344;2023-07-29T02:15:54;99754.09;;;26.24;36.36
13478;BME280;12598;62.382;17.344;2023-07-29T02:16:56;99754.91;;;26.24;36.53
13478;BME280;12598;62.382;17.344;2023-07-29T02:17:58;99749.34;;;26.19;36.39
13478;BME280;12598;62.382;17.344;2023-07-29T02:19:01;99755.75;;;26.25;36.46
13478;BME280;12598;62.382;17.344;2023-07-29T02:20:03;99747.84;;;26.23;36.53
13478;BME280;12598;62.382;17.344;2023-07-29T02:21:05;99757.47;;;26.19;36.28
13478;BME280;12598;62.382;17.344;2023-07-29T02:22:07;99754.91;;;26.24;36.22
13478;BME280;12598;62.382;17.344;2023-07-29T02:23:09;99763.03;;;26.24;36.47
13478;BME280;12598;62.382;17.344;2023-07-29T02:24:11;99750.41;;;26.18;36.53
13478;BME280;12598;62.382;17.344;2023-07-29T02:25:13;99757.88;;;26.23;36.23
13478;BME280;12598;62.382;17.344;2023-07-29T02:26:16;99757.03;;;26.22;36.64
13478;BME280;12598;62.382;17.344;2023-07-29T02:27:19;99766.81;;;26.23;36.37
13478;BME280;12598;62.382;17.344;2023-07-29T02:28:21;99755.97;;;26.23;36.61
13478;BME280;12598;62.382;17.344;2023-07-29T02:29:23;99758.69;;;26.23;36.59
13478;BME280;12598;62.382;17.344;2023-07-29T02:30:26;99761.84;;;26.20;36.55
13478;BME280;12598;62.382;17.344;2023-07-29T02:31:28;99760.44;;;26.18;36.54
13478;BME280;12598;62.382;17.344;2023-07-29T02:32:30;99759.72;;;26.22;36.55
13478;BME280;12598;62.382;17.344;2023-07-29T02:33:32;99757.47;;;26.19;36.74
13478;BME280;12598;62.382;17.344;2023-07-29T02:34:34;99757.72;;;26.18;36.70
13478;BME280;12598;62.382;17.344;2023-07-29T02:35:36;99758.94;;;26.22;36.65
13478;BME280;12598;62.382;17.344;2023-07-29T02:36:38;99765.16;;;26.22;36.93
13478;BME280;12598;62.382;17.344;2023-07-29T02:37:41;99767.06;;;26.22;36.60
13478;BME280;12598;62.382;17.344;2023-07-29T02:38:43;99755.44;;;26.15;36.90
13478;BME280;12598;62.382;17.344;2023-07-29T02:39:45;99763.75;;;26.20;36.40
13478;BME280;12598;62.382;17.344;2023-07-29T02:40:47;99765.41;;;26.21;36.70
13478;BME280;12598;62.382;17.344;2023-07-29T02:41:49;99763.75;;;26.20;36.67
13478;BME280;12598;62.382;17.344;2023-07-29T02:42:51;99764.78;;;26.19;36.78
13478;BME280;12598;62.382;17.344;2023-07-29T02:43:53;99765.59;;;26.19;36.60
13478;BME280;12598;62.382;17.344;2023-07-29T02:44:55;99765.59;;;26.19;36.51
13478;BME280;12598;62.382;17.344;2023-07-29T02:45:57;99762.91;;;26.19;36.69
13478;BME280;12598;62.382;17.344;2023-07-29T02:46:59;99758.53;;;26.18;36.86
13478;BME280;12598;62.382;17.344;2023-07-29T02:48:01;99771.03;;;26.19;36.89
13478;BME280;12598;62.382;17.344;2023-07-29T02:49:03;99758.97;;;26.15;36.81
13478;BME280;12598;62.382;17.344;2023-07-29T02:50:05;99769.16;;;26.20;36.73
13478;BME280;12598;62.382;17.344;2023-07-29T02:51:07;99762.91;;;26.19;36.80
13478;BME280;12598;62.382;17.344;2023-07-29T02:52:09;99751.31;;;26.12;36.84
13478;BME280;12598;62.382;17.344;2023-07-29T02:53:11;99767.25;;;26.20;36.83
13478;BME280;12598;62.382;17.344;2023-07-29T02:54:13;99763.75;;;26.20;36.86
13478;BME280;12598;62.382;17.344;2023-07-29T02:55:15;99755.81;;;26.18;36.92
13478;BME280;12598;62.382;17.344;2023-07-29T02:56:17;99761.25;;;26.18;36.95
13478;BME280;12598;62.382;17.344;2023-07-29T02:57:20;99756.88;;;26.17;36.69
13478;BME280;12598;62.382;17.344;2023-07-29T02:58:22;99755.00;;;26.18;36.77
13478;BME280;12598;62.382;17.344;2023-07-29T02:59:24;99762.09;;;26.19;37.04
13478;BME280;12598;62.382;17.344;2023-07-29T03:00:26;99746.69;;;26.13;36.86
13478;BME280;12598;62.382;17.344;2023-07-29T03:01:28;99766.66;;;26.18;37.34
13478;BME280;12598;62.382;17.344;2023-07-29T03:02:30;99754.16;;;26.17;36.45
13478;BME280;12598;62.382;17.344;2023-07-29T03:03:32;99747.38;;;26.08;36.82
13478;BME280;12598;62.382;17.344;2023-07-29T03:04:34;99761.25;;;26.18;36.86
13478;BME280;12598;62.382;17.344;2023-07-29T03:05:37;99756.66;;;26.19;36.67
13478;BME280;12598;62.382;17.344;2023-07-29T03:06:40;99768.56;;;26.18;36.76
13478;BME280;12598;62.382;17.344;2023-07-29T03:07:41;99759.59;;;26.17;36.88
13478;BME280;12598;62.382;17.344;2023-07-29T03:08:43;99757.13;;;26.16;36.68
13478;BME280;12598;62.382;17.344;2023-07-29T03:09:46;99762.28;;;26.17;37.07
13478;BME280;12598;62.382;17.344;2023-07-29T03:10:47;99757.94;;;26.16;36.79
13478;BME280;12598;62.382;17.344;2023-07-29T03:11:49;99754.81;;;26.13;36.98
13478;BME280;12598;62.382;17.344;2023-07-29T03:12:56;99766.91;;;26.17;37.01
13478;BME280;12598;62.382;17.344;2023-07-29T03:13:58;99762.28;;;26.17;36.95
13478;BME280;12598;62.382;17.344;2023-07-29T03:15:02;99759.59;;;26.17;37.07
13478;BME280;12598;62.382;17.344;2023-07-29T03:16:08;99756.28;;;26.15;37.01
13478;BME280;12598;62.382;17.344;2023-07-29T03:17:12;99761.25;;;26.18;37.12
13478;BME280;12598;62.382;17.344;2023-07-29T03:18:15;99752.50;;;26.16;36.94
13478;BME280;12598;62.382;17.344;2023-07-29T03:19:17;99759.59;;;26.17;36.75
13478;BME280;12598;62.382;17.344;2023-07-29T03:20:19;99751.31;;;26.12;36.90
13478;BME280;12598;62.382;17.344;2023-07-29T03:21:21;99750.84;;;26.15;36.90
13478;BME280;12598;62.382;17.344;2023-07-29T03:22:23;99757.94;;;26.16;36.71
13478;BME280;12598;62.382;17.344;2023-07-29T03:23:25;99754.63;;;26.14;36.60
13478;BME280;12598;62.382;17.344;2023-07-29T03:24:27;99754.63;;;26.14;37.03
13478;BME280;12598;62.382;17.344;2023-07-29T03:25:30;99754.63;;;26.14;37.19
13478;BME280;12598;62.382;17.344;2023-07-29T03:26:32;99748.13;;;26.15;37.03
13478;BME280;12598;62.382;17.344;2023-07-29T03:27:34;99745.44;;;26.15;36.40
13478;BME280;12598;62.382;17.344;2023-07-29T03:28:40;99751.06;;;26.14;37.13
13478;BME280;12598;62.382;17.344;2023-07-29T03:29:42;99730.38;;;26.01;36.81
13478;BME280;12598;62.382;17.344;2023-07-29T03:30:44;99750.25;;;26.13;36.76
13478;BME280;12598;62.382;17.344;2023-07-29T03:31:46;99749.19;;;26.14;37.13
13478;BME280;12598;62.382;17.344;2023-07-29T03:32:49;99749.66;;;26.11;36.79
13478;BME280;12598;62.382;17.344;2023-07-29T03:33:51;99759.19;;;26.14;37.28
13478;BME280;12598;62.382;17.344;2023-07-29T03:34:53;99755.66;;;26.13;36.84
13478;BME280;12598;62.382;17.344;2023-07-29T03:35:55;99747.53;;;26.13;37.17
13478;BME280;12598;62.382;17.344;2023-07-29T03:37:00;99748.59;;;26.12;37.07
13478;BME280;12598;62.382;17.344;2023-07-29T03:38:02;99740.06;;;26.09;36.94
13478;BME280;12598;62.382;17.344;2023-07-29T03:39:04;99752.97;;;26.13;37.28
13478;BME280;12598;62.382;17.344;2023-07-29T03:40:07;99737.59;;;26.07;36.93
13478;BME280;12598;62.382;17.344;2023-07-29T03:41:10;99739.72;;;26.05;36.92
13478;BME280;12598;62.382;17.344;2023-07-29T03:42:12;99745.88;;;26.12;36.94
13478;BME280;12598;62.382;17.344;2023-07-29T03:43:14;99751.31;;;26.12;37.37
13478;BME280;12598;62.382;17.344;2023-07-29T03:44:16;99756.72;;;26.12;37.06
13478;BME280;12598;62.382;17.344;2023-07-29T03:45:20;99752.56;;;26.10;36.80
13478;BME280;12598;62.382;17.344;2023-07-29T03:46:22;99755.06;;;26.11;36.98
13478;BME280;12598;62.382;17.344;2023-07-29T03:47:25;99745.72;;;26.07;37.01
13478;BME280;12598;62.382;17.344;2023-07-29T03:48:27;99749.94;;;26.03;37.11
13478;BME280;12598;62.382;17.344;2023-07-29T03:49:29;99754.22;;;26.11;37.36
13478;BME280;12598;62.382;17.344;2023-07-29T03:50:33;99762.78;;;26.08;36.96
13478;BME280;12598;62.382;17.344;2023-07-29T03:51:36;99761.75;;;26.09;37.44
13478;BME280;12598;62.382;17.344;2023-07-29T03:52:39;99763.41;;;26.10;36.95
13478;BME280;12598;62.382;17.344;2023-07-29T03:53:41;99760.69;;;26.10;37.32
13478;BME280;12598;62.382;17.344;2023-07-29T03:54:43;99759.28;;;26.07;37.37
13478;BME280;12598;62.382;17.344;2023-07-29T03:55:44;99761.75;;;26.09;37.49
13478;BME280;12598;62.382;17.344;2023-07-29T03:56:47;99759.72;;;26.04;37.32
13478;BME280;12598;62.382;17.344;2023-07-29T03:57:49;99760.09;;;26.08;37.37
13478;BME280;12598;62.382;17.344;2023-07-29T03:58:52;99768.22;;;26.08;37.21
13478;BME280;12598;62.382;17.344;2023-07-29T03:59:54;99767.16;;;26.09;37.33
13478;BME280;12598;62.382;17.344;2023-07-29T04:00:56;99766.34;;;26.08;37.16
13478;BME280;12598;62.382;17.344;2023-07-29T04:01:58;99772.81;;;26.07;37.21
13478;BME280;12598;62.382;17.344;2023-07-29T04:03:00;99765.13;;;26.04;37.12
13478;BME280;12598;62.382;17.344;2023-07-29T04:04:02;99765.75;;;26.06;37.26
13478;BME280;12598;62.382;17.344;2023-07-29T04:05:06;99763.84;;;26.07;37.36
13478;BME280;12598;62.382;17.344;2023-07-29T04:06:10;99769.06;;;26.08;37.31
13478;BME280;12598;62.382;17.344;2023-07-29T04:07:12;99759.28;;;26.07;37.27
13478;BME280;12598;62.382;17.344;2023-07-29T04:08:14;99754.75;;;26.01;37.48
13478;BME280;12598;62.382;17.344;2023-07-29T04:09:16;99768.44;;;26.06;37.68
13478;BME280;12598;62.382;17.344;2023-07-29T04:10:18;99763.84;;;26.07;37.38
13478;BME280;12598;62.382;17.344;2023-07-29T04:11:20;99761.97;;;26.07;37.42
13478;BME280;12598;62.382;17.344;2023-07-29T04:12:23;99761.13;;;26.07;37.42
13478;BME280;12598;62.382;17.344;2023-07-29T04:13:25;99760.53;;;26.05;37.57
13478;BME280;12598;62.382;17.344;2023-07-29T04:14:27;99769.28;;;26.07;37.50
13478;BME280;12598;62.382;17.344;2023-07-29T04:15:29;99767.63;;;26.06;37.19
13478;BME280;12598;62.382;17.344;2023-07-29T04:16:32;99764.28;;;26.04;37.41
13478;BME280;12598;62.382;17.344;2023-07-29T04:17:34;99757.63;;;26.06;37.32
13478;BME280;12598;62.382;17.344;2023-07-29T04:18:37;99773.88;;;26.06;37.72
13478;BME280;12598;62.382;17.344;2023-07-29T04:19:39;99771.16;;;26.06;37.79
13478;BME280;12598;62.382;17.344;2023-07-29T04:20:41;99766.78;;;26.05;37.81
13478;BME280;12598;62.382;17.344;2023-07-29T04:21:43;99767.63;;;26.06;37.28
13478;BME280;12598;62.382;17.344;2023-07-29T04:22:45;99764.91;;;26.06;37.43
13478;BME280;12598;62.382;17.344;2023-07-29T04:23:47;99765.13;;;26.04;37.62
13478;BME280;12598;62.382;17.344;2023-07-29T04:24:49;99766.78;;;26.05;37.62
13478;BME280;12598;62.382;17.344;2023-07-29T04:25:51;99767.63;;;26.06;37.70
13478;BME280;12598;62.382;17.344;2023-07-29T04:26:53;99760.53;;;26.05;37.32
13478;BME280;12598;62.382;17.344;2023-07-29T04:27:55;99757.00;;;26.04;37.42
13478;BME280;12598;62.382;17.344;2023-07-29T04:28:59;99772.22;;;26.05;37.96
13478;BME280;12598;62.382;17.344;2023-07-29T04:30:01;99762.03;;;26.01;37.66
13478;BME280;12598;62.382;17.344;2023-07-29T04:31:03;99764.09;;;26.05;37.67
13478;BME280;12598;62.382;17.344;2023-07-29T04:32:06;99767.25;;;26.02;37.70
13478;BME280;12598;62.382;17.344;2023-07-29T04:33:08;99773.28;;;26.04;38.07
13478;BME280;12598;62.382;17.344;2023-07-29T04:34:11;99769.50;;;26.05;37.75
13478;BME280;12598;62.382;17.344;2023-07-29T04:35:14;99785.75;;;26.05;37.69
13478;BME280;12598;62.382;17.344;2023-07-29T04:36:16;99773.47;;;26.03;37.97
13478;BME280;12598;62.382;17.344;2023-07-29T04:37:19;99781.41;;;26.04;38.24
13478;BME280;12598;62.382;17.344;2023-07-29T04:38:21;99785.16;;;26.03;38.03
13478;BME280;12598;62.382;17.344;2023-07-29T04:39:23;99790.56;;;26.03;37.85
13478;BME280;12598;62.382;17.344;2023-07-29T04:40:25;99779.34;;;26.00;37.85
13478;BME280;12598;62.382;17.344;2023-07-29T04:41:27;99781.84;;;26.01;37.99
13478;BME280;12598;62.382;17.344;2023-07-29T04:42:29;99785.16;;;26.03;37.66
13478;BME280;12598;62.382;17.344;2023-07-29T04:43:31;99785.16;;;26.03;38.23
13478;BME280;12598;62.382;17.344;2023-07-29T04:44:33;99774.78;;;26.00;37.93
13478;BME280;12598;62.382;17.344;2023-07-29T04:45:42;99781.41;;;26.04;38.10
13478;BME280;12598;62.382;17.344;2023-07-29T04:46:44;99781.41;;;26.04;38.29
13478;BME280;12598;62.382;17.344;2023-07-29T04:47:46;99775.13;;;26.04;38.29
13478;BME280;12598;62.382;17.344;2023-07-29T04:48:48;99770.56;;;26.04;37.92
13478;BME280;12598;62.382;17.344;2023-07-29T04:49:50;99769.72;;;26.04;37.84
13478;BME280;12598;62.382;17.344;2023-07-29T04:50:52;99767.47;;;26.01;37.97
13478;BME280;12598;62.382;17.344;2023-07-29T04:51:54;99777.03;;;26.03;37.95
13478;BME280;12598;62.382;17.344;2023-07-29T04:52:56;99760.63;;;25.98;38.16
13478;BME280;12598;62.382;17.344;2023-07-29T04:53:58;99759.78;;;25.98;38.16
13478;BME280;12598;62.382;17.344;2023-07-29T04:55:00;99765.34;;;26.03;37.93
13478;BME280;12598;62.382;17.344;2023-07-29T04:56:03;99761.81;;;26.02;37.93
13478;BME280;12598;62.382;17.344;2023-07-29T04:57:05;99754.75;;;26.01;38.06
13478;BME280;12598;62.382;17.344;2023-07-29T04:58:07;99761.81;;;26.02;37.99
13478;BME280;12598;62.382;17.344;2023-07-29T04:59:10;99756.41;;;26.02;38.11
13478;BME280;12598;62.382;17.344;2023-07-29T05:00:14;99751.00;;;26.02;38.04
13478;BME280;12598;62.382;17.344;2023-07-29T05:01:16;99759.13;;;26.02;38.04
13478;BME280;12598;62.382;17.344;2023-07-29T05:02:19;99747.28;;;25.97;37.89
13478;BME280;12598;62.382;17.344;2023-07-29T05:03:21;99756.41;;;26.02;38.11
13478;BME280;12598;62.382;17.344;2023-07-29T05:04:23;99756.41;;;26.02;38.00
13478;BME280;12598;62.382;17.344;2023-07-29T05:05:25;99752.84;;;26.02;37.93
13478;BME280;12598;62.382;17.344;2023-07-29T05:06:27;99747.69;;;26.00;38.16
13478;BME280;12598;62.382;17.344;2023-07-29T05:07:30;99742.88;;;26.02;38.01
13478;BME280;12598;62.382;17.344;2023-07-29T05:08:32;99740.16;;;26.02;38.18
13478;BME280;12598;62.382;17.344;2023-07-29T05:09:34;99747.44;;;26.02;37.89
13478;BME280;12598;62.382;17.344;2023-07-29T05:10:36;99749.34;;;26.01;38.13
13478;BME280;12598;62.382;17.344;2023-07-29T05:11:38;99746.63;;;26.01;37.97
13478;BME280;12598;62.382;17.344;2023-07-29T05:12:40;99750.16;;;26.02;37.85
13478;BME280;12598;62.382;17.344;2023-07-29T05:13:42;99743.91;;;26.01;38.12
13478;BME280;12598;62.382;17.344;2023-07-29T05:14:46;99742.88;;;26.02;38.06
13478;BME280;12598;62.382;17.344;2023-07-29T05:15:48;99740.16;;;26.02;38.25
13478;BME280;12598;62.382;17.344;2023-07-29T05:16:50;99749.09;;;26.03;38.37
13478;BME280;12598;62.382;17.344;2023-07-29T05:17:53;99747.22;;;26.03;37.99
13478;BME280;12598;62.382;17.344;2023-07-29T05:18:55;99751.19;;;26.01;38.14
13478;BME280;12598;62.382;17.344;2023-07-29T05:19:57;99743.91;;;26.01;37.96
13478;BME280;12598;62.382;17.344;2023-07-29T05:20:59;99746.63;;;26.01;38.16
13478;BME280;12598;62.382;17.344;2023-07-29T05:22:01;99744.72;;;26.02;37.92
13478;BME280;12598;62.382;17.344;2023-07-29T05:23:03;99749.09;;;26.03;38.31
13478;BME280;12598;62.382;17.344;2023-07-29T05:24:05;99745.56;;;26.02;38.12
13478;BME280;12598;62.382;17.344;2023-07-29T05:25:07;99741.22;;;26.01;38.09
13478;BME280;12598;62.382;17.344;2023-07-29T05:26:10;99744.72;;;26.02;38.01
13478;BME280;12598;62.382;17.344;2023-07-29T05:27:12;99733.53;;;25.98;38.37
13478;BME280;12598;62.382;17.344;2023-07-29T05:28:13;99753.69;;;26.02;38.26
13478;BME280;12598;62.382;17.344;2023-07-29T05:29:15;99738.94;;;25.98;38.39
13478;BME280;12598;62.382;17.344;2023-07-29T05:30:17;99745.56;;;26.02;38.08
13478;BME280;12598;62.382;17.344;2023-07-29T05:31:19;99740.00;;;25.97;38.43
13478;BME280;12598;62.382;17.344;2023-07-29T05:32:21;99748.28;;;26.02;38.17
13478;BME280;12598;62.382;17.344;2023-07-29T05:33:23;99751.00;;;26.02;38.69
13478;BME280;12598;62.382;17.344;2023-07-29T05:34:25;99752.66;;;26.03;38.05
13478;BME280;12598;62.382;17.344;2023-07-29T05:35:28;99758.06;;;26.03;38.63
13478;BME280;12598;62.382;17.344;2023-07-29T05:36:29;99755.56;;;26.02;38.33